createdAt,value
2019-05-22T00:00:03.467Z,75.00
2019-05-22T00:01:03.497Z,90.40
2019-05-22T00:02:03.529Z,84.00
2019-05-22T00:03:03.814Z,73.40
2019-05-22T00:04:03.611Z,68.60
2019-05-22T00:06:03.879Z,70.20
2019-05-22T00:07:04.113Z,67.90
2019-05-22T00:08:03.734Z,74.40
2019-05-22T00:09:03.751Z,75.80
2019-05-22T00:10:03.977Z,77.50
2019-05-22T00:11:04.135Z,70.20
2019-05-22T00:12:04.037Z,60.20
2019-05-22T00:13:03.889Z,58.60
2019-05-22T00:14:03.923Z,55.40
2019-05-22T00:15:04.231Z,68.00
2019-05-22T00:16:05.600Z,66.10
2019-05-22T00:18:04.042Z,70.10
2019-05-22T00:19:04.076Z,63.30
2019-05-22T00:20:04.319Z,66.20
2019-05-22T00:21:04.145Z,66.50
2019-05-22T00:22:04.165Z,69.20
2019-05-22T00:24:04.630Z,64.60
2019-05-22T00:25:04.455Z,66.70
2019-05-22T00:31:04.451Z,63.90
2019-05-22T00:32:04.877Z,72.80
2019-05-22T00:36:05.197Z,68.40
2019-05-22T00:37:05.026Z,77.90
2019-05-22T00:38:08.778Z,75.70
2019-05-22T00:39:04.660Z,73.80
2019-05-22T00:40:04.741Z,64.50
2019-05-22T00:41:04.720Z,72.40
2019-05-22T00:42:04.752Z,70.20
2019-05-22T00:43:12.872Z,79.90
2019-05-22T00:44:04.812Z,68.50
2019-05-22T00:45:04.842Z,73.50
2019-05-22T00:46:04.873Z,75.10
2019-05-22T00:47:04.907Z,77.80
2019-05-22T00:48:04.945Z,72.00
2019-05-22T00:49:04.964Z,66.60
2019-05-22T00:50:04.995Z,78.30
2019-05-22T00:51:05.093Z,70.10
2019-05-22T00:52:05.106Z,82.60
2019-05-22T00:53:05.088Z,80.40
2019-05-22T00:54:05.116Z,84.40
2019-05-22T00:55:05.146Z,88.20
2019-05-22T00:56:05.178Z,80.70
2019-05-22T00:57:05.209Z,75.60
2019-05-22T00:58:05.237Z,76.90
2019-05-22T00:59:05.270Z,71.80
2019-05-22T01:00:05.354Z,68.30
2019-05-22T01:01:07.951Z,73.40
2019-05-22T01:02:05.360Z,75.50
2019-05-22T01:03:05.389Z,81.60
2019-05-22T01:04:05.420Z,77.50
2019-05-22T01:05:05.456Z,84.50
2019-05-22T01:06:05.482Z,91.20
2019-05-22T01:07:05.515Z,79.20
2019-05-22T01:08:05.541Z,92.10
2019-05-22T01:09:05.575Z,100.70
2019-05-22T01:10:06.347Z,85.50
2019-05-22T01:11:06.847Z,90.90
2019-05-22T01:12:05.663Z,82.70
2019-05-22T01:13:05.694Z,73.70
2019-05-22T01:14:08.347Z,78.70
2019-05-22T01:15:05.758Z,75.90
2019-05-22T01:16:05.784Z,79.60
2019-05-22T01:17:05.814Z,83.60
2019-05-22T01:18:05.847Z,89.30
2019-05-22T01:19:05.881Z,74.20
2019-05-22T01:20:05.907Z,86.60
2019-05-22T01:21:05.939Z,73.60
2019-05-22T01:22:05.967Z,74.90
2019-05-22T01:23:06.000Z,79.80
2019-05-22T01:24:06.030Z,79.90
2019-05-22T01:25:06.069Z,79.60
2019-05-22T01:26:06.102Z,76.90
2019-05-22T01:27:06.123Z,71.50
2019-05-22T01:28:06.152Z,74.70
2019-05-22T01:29:06.181Z,74.90
2019-05-22T01:30:06.213Z,64.70
2019-05-22T01:31:06.247Z,70.70
2019-05-22T01:32:06.481Z,73.50
2019-05-22T01:33:06.305Z,74.60
2019-05-22T01:34:06.336Z,76.80
2019-05-22T01:35:06.366Z,75.60
2019-05-22T01:36:06.395Z,74.50
2019-05-22T01:37:06.426Z,71.90
2019-05-22T01:38:06.459Z,63.90
2019-05-22T01:39:06.576Z,76.20
2019-05-22T01:41:06.548Z,76.40
2019-05-22T01:42:06.580Z,78.20
2019-05-22T01:43:06.611Z,78.30
2019-05-22T01:44:06.641Z,75.30
2019-05-22T01:45:07.042Z,68.00
2019-05-22T01:46:06.702Z,67.20
2019-05-22T01:47:06.786Z,59.00
2019-05-22T01:48:06.761Z,60.60
2019-05-22T01:49:06.792Z,62.00
2019-05-22T01:50:06.830Z,56.60
2019-05-22T01:51:06.857Z,56.80
2019-05-22T01:52:06.882Z,65.50
2019-05-22T01:53:06.915Z,57.70
2019-05-22T01:54:06.944Z,61.80
2019-05-22T01:55:06.975Z,63.30
2019-05-22T01:56:07.109Z,66.70
2019-05-22T01:57:07.035Z,52.90
2019-05-22T01:58:07.067Z,62.70
2019-05-22T01:59:07.096Z,54.50
2019-05-22T02:00:07.126Z,54.50
2019-05-22T02:01:07.157Z,65.30
2019-05-22T02:02:07.190Z,55.80
2019-05-22T02:03:07.218Z,58.40
2019-05-22T02:04:07.247Z,51.50
2019-05-22T02:05:07.279Z,55.10
2019-05-22T02:06:07.313Z,51.50
2019-05-22T02:07:07.343Z,59.30
2019-05-22T02:08:07.428Z,57.60
2019-05-22T02:09:07.399Z,49.70
2019-05-22T02:10:07.429Z,48.10
2019-05-22T02:11:07.662Z,51.50
2019-05-22T02:12:07.488Z,55.60
2019-05-22T02:13:07.522Z,48.70
2019-05-22T02:14:07.569Z,49.30
2019-05-22T02:15:07.586Z,47.90
2019-05-22T02:16:07.611Z,55.50
2019-05-22T02:17:07.642Z,52.70
2019-05-22T02:18:07.733Z,48.90
2019-05-22T02:19:07.703Z,55.90
2019-05-22T02:20:08.232Z,55.70
2019-05-22T02:21:07.763Z,58.00
2019-05-22T02:23:07.823Z,64.30
2019-05-22T02:24:07.853Z,57.20
2019-05-22T02:26:07.915Z,61.30
2019-05-22T02:27:07.953Z,59.10
2019-05-22T02:28:07.974Z,56.90
2019-05-22T02:29:08.004Z,60.80
2019-05-22T02:30:08.036Z,59.10
2019-05-22T02:31:08.066Z,58.10
2019-05-22T02:32:08.096Z,64.20
2019-05-22T02:33:08.131Z,58.90
2019-05-22T02:34:08.158Z,59.30
2019-05-22T02:35:08.188Z,58.00
2019-05-22T02:36:08.219Z,62.20
2019-05-22T02:37:09.903Z,54.70
2019-05-22T02:38:08.285Z,57.40
2019-05-22T02:39:08.316Z,54.90
2019-05-22T02:40:08.345Z,52.70
2019-05-22T02:41:08.370Z,62.00
2019-05-22T02:42:08.400Z,57.00
2019-05-22T02:43:08.429Z,56.00
2019-05-22T02:44:08.462Z,60.00
2019-05-22T02:46:08.522Z,60.20
2019-05-22T02:47:19.226Z,55.50
2019-05-22T02:48:08.580Z,52.40
2019-05-22T02:49:08.610Z,67.10
2019-05-22T02:50:08.642Z,57.60
2019-05-22T02:51:08.671Z,66.00
2019-05-22T02:52:08.702Z,58.90
2019-05-22T02:53:08.734Z,67.70
2019-05-22T02:54:08.766Z,66.90
2019-05-22T02:55:08.795Z,69.00
2019-05-22T02:58:08.883Z,63.20
2019-05-22T02:59:08.964Z,69.50
2019-05-22T03:00:08.941Z,68.80
2019-05-22T03:01:08.972Z,68.30
2019-05-22T03:02:09.004Z,59.50
2019-05-22T03:03:09.057Z,66.10
2019-05-22T03:04:09.065Z,69.10
2019-05-22T03:06:09.133Z,63.00
2019-05-22T03:07:09.383Z,70.40
2019-05-22T03:08:09.410Z,69.10
2019-05-22T03:09:09.930Z,70.40
2019-05-22T03:11:09.276Z,65.70
2019-05-22T03:12:09.329Z,73.00
2019-05-22T03:13:09.344Z,71.70
2019-05-22T03:14:09.425Z,68.80
2019-05-22T03:15:09.396Z,73.00
2019-05-22T03:16:09.426Z,67.30
2019-05-22T03:17:09.456Z,66.70
2019-05-22T03:18:09.487Z,65.80
2019-05-22T03:19:09.572Z,74.50
2019-05-22T03:20:09.545Z,73.20
2019-05-22T03:21:09.576Z,69.70
2019-05-22T03:22:09.607Z,77.70
2019-05-22T03:23:09.638Z,74.60
2019-05-22T03:24:09.666Z,65.30
2019-05-22T03:25:09.699Z,68.00
2019-05-22T03:26:09.734Z,58.80
2019-05-22T03:27:09.758Z,62.50
2019-05-22T03:28:09.787Z,58.30
2019-05-22T03:29:09.819Z,54.20
2019-05-22T03:30:09.969Z,61.40
2019-05-22T03:31:09.894Z,68.00
2019-05-22T03:32:10.134Z,65.80
2019-05-22T03:33:09.988Z,75.40
2019-05-22T03:34:09.968Z,77.10
2019-05-22T03:35:10.006Z,68.40
2019-05-22T03:36:10.053Z,72.70
2019-05-22T03:38:10.088Z,73.30
2019-05-22T03:39:10.119Z,68.80
2019-05-22T03:41:10.179Z,73.10
2019-05-22T03:43:10.239Z,75.30
2019-05-22T03:44:10.294Z,71.00
2019-05-22T03:45:10.317Z,79.30
2019-05-22T03:46:10.330Z,83.20
2019-05-22T03:47:10.363Z,80.30
2019-05-22T03:48:10.390Z,84.60
2019-05-22T03:49:28.217Z,82.00
2019-05-22T03:50:10.450Z,76.10
2019-05-22T03:51:10.478Z,89.50
2019-05-22T03:52:10.509Z,68.20
2019-05-22T03:53:10.539Z,60.50
2019-05-22T03:54:10.568Z,68.30
2019-05-22T03:55:10.599Z,68.10
2019-05-22T03:56:10.628Z,74.20
2019-05-22T03:57:10.663Z,68.10
2019-05-22T03:58:10.893Z,70.80
2019-05-22T03:59:10.720Z,77.60
2019-05-22T04:00:10.750Z,75.40
2019-05-22T04:02:10.809Z,70.80
2019-05-22T04:03:11.045Z,66.00
2019-05-22T04:04:10.875Z,64.60
2019-05-22T04:05:10.899Z,70.30
2019-05-22T04:06:10.929Z,60.90
2019-05-22T04:07:10.968Z,73.70
2019-05-22T04:08:10.990Z,67.00
2019-05-22T04:09:11.019Z,56.10
2019-05-22T04:10:11.050Z,63.60
2019-05-22T04:11:11.081Z,72.40
2019-05-22T04:13:11.141Z,78.30
2019-05-22T04:14:11.174Z,68.40
2019-05-22T04:15:11.201Z,70.50
2019-05-22T04:16:11.231Z,72.40
2019-05-22T04:17:11.259Z,68.20
2019-05-22T04:18:11.290Z,74.20
2019-05-22T04:19:11.320Z,76.40
2019-05-22T04:20:11.350Z,70.30
2019-05-22T04:21:11.381Z,76.90
2019-05-22T04:22:11.414Z,70.10
2019-05-22T04:23:11.441Z,72.10
2019-05-22T04:24:11.472Z,71.60
2019-05-22T04:25:11.500Z,68.30
2019-05-22T04:26:11.533Z,67.60
2019-05-22T04:27:11.563Z,62.70
2019-05-22T04:28:11.591Z,70.10
2019-05-22T04:29:11.621Z,59.80
2019-05-22T04:30:11.651Z,70.30
2019-05-22T04:31:11.682Z,67.80
2019-05-22T04:32:11.914Z,73.00
2019-05-22T04:33:11.743Z,65.70
2019-05-22T04:34:11.780Z,66.00
2019-05-22T04:35:11.805Z,65.90
2019-05-22T04:36:11.832Z,69.90
2019-05-22T04:37:11.864Z,72.50
2019-05-22T04:38:11.894Z,71.70
2019-05-22T04:39:11.923Z,71.60
2019-05-22T04:41:11.985Z,77.30
2019-05-22T04:42:12.030Z,67.70
2019-05-22T04:43:12.043Z,66.00
2019-05-22T04:45:12.211Z,68.20
2019-05-22T04:46:12.135Z,65.00
2019-05-22T04:47:12.165Z,69.10
2019-05-22T04:48:12.202Z,58.20
2019-05-22T04:49:12.230Z,70.50
2019-05-22T04:50:12.255Z,58.40
2019-05-22T04:51:12.287Z,68.60
2019-05-22T04:52:12.432Z,75.70
2019-05-22T04:53:12.371Z,66.50
2019-05-22T04:54:12.378Z,77.60
2019-05-22T04:55:12.411Z,77.20
2019-05-22T04:56:12.643Z,73.90
2019-05-22T04:57:12.670Z,73.80
2019-05-22T04:58:45.732Z,77.70
2019-05-22T04:59:12.730Z,71.80
2019-05-22T05:00:12.580Z,78.60
2019-05-22T05:01:12.610Z,77.60
2019-05-22T05:02:12.650Z,63.60
2019-05-22T05:12:27.241Z,66.90
2019-05-22T05:15:27.132Z,68.50
2019-05-22T05:16:27.156Z,76.90
2019-05-22T05:17:27.467Z,79.90
2019-05-22T05:18:27.195Z,78.70
2019-05-22T05:19:27.225Z,80.00
2019-05-22T05:20:27.259Z,70.50
2019-05-22T05:21:27.286Z,78.60
2019-05-22T05:22:27.317Z,70.60
2019-05-22T05:23:27.347Z,73.10
2019-05-22T05:24:27.378Z,66.40
2019-05-22T05:25:27.418Z,69.20
2019-05-22T05:26:27.460Z,71.60
2019-05-22T05:27:27.490Z,77.50
2019-05-22T05:28:27.908Z,77.10
2019-05-22T05:29:28.977Z,85.20
2019-05-22T05:30:27.560Z,86.60
2019-05-22T05:31:27.590Z,86.90
2019-05-22T05:32:27.622Z,79.60
2019-05-22T05:33:27.652Z,83.90
2019-05-22T05:34:27.910Z,85.00
2019-05-22T05:35:27.712Z,81.30
2019-05-22T05:36:27.770Z,70.30
2019-05-22T05:37:27.775Z,76.70
2019-05-22T05:38:27.813Z,76.10
2019-05-22T05:39:27.843Z,80.90
2019-05-22T05:40:27.962Z,70.40
2019-05-22T05:41:27.899Z,76.70
2019-05-22T05:42:27.927Z,67.60
2019-05-22T05:43:27.978Z,52.00
2019-05-22T05:44:27.992Z,61.30
2019-05-22T05:45:28.020Z,51.40
2019-05-22T05:46:28.052Z,59.40
2019-05-22T05:47:28.081Z,53.90
2019-05-22T05:48:28.112Z,56.80
2019-05-22T05:49:28.143Z,56.10
2019-05-22T05:50:38.761Z,52.40
2019-05-22T05:51:28.203Z,57.50
2019-05-22T05:52:28.236Z,69.70
2019-05-22T05:53:28.266Z,62.60
2019-05-22T05:54:30.305Z,51.90
2019-05-22T05:55:28.329Z,65.80
2019-05-22T05:56:28.361Z,46.50
2019-05-22T05:57:28.491Z,44.30
2019-05-22T05:58:28.832Z,44.80
2019-05-22T05:59:28.478Z,46.20
2019-05-22T06:00:28.626Z,37.50
2019-05-22T06:01:28.746Z,50.00
2019-05-22T06:03:28.603Z,44.30
2019-05-22T06:04:34.750Z,47.60
2019-05-22T06:06:29.004Z,47.30
2019-05-22T06:07:28.909Z,46.90
2019-05-22T06:09:28.767Z,40.80
2019-05-22T06:10:28.803Z,43.70
2019-05-22T06:11:28.830Z,43.40
2019-05-22T06:12:28.867Z,45.30
2019-05-22T06:13:28.896Z,41.90
2019-05-22T06:14:28.927Z,42.20
2019-05-22T06:15:28.958Z,44.90
2019-05-22T06:16:28.991Z,38.00
2019-05-22T06:17:29.023Z,40.30
2019-05-22T06:18:29.056Z,43.50
2019-05-22T06:19:29.088Z,39.30
2019-05-22T06:20:29.118Z,36.00
2019-05-22T06:21:29.151Z,37.20
2019-05-22T06:22:29.183Z,40.50
2019-05-22T06:23:29.215Z,40.30
2019-05-22T06:25:29.305Z,38.30
2019-05-22T06:26:29.333Z,36.20
2019-05-22T06:27:29.371Z,40.30
2019-05-22T06:28:29.602Z,47.50
2019-05-22T06:29:29.877Z,42.10
2019-05-22T06:55:31.742Z,29.10
2019-05-22T07:01:41.932Z,26.90
2019-05-22T07:12:21.554Z,19.80
2019-05-22T07:13:21.587Z,20.30
2019-05-22T07:43:35.209Z,14.30
2019-05-22T08:03:00.769Z,14.10
2019-05-22T08:04:01.202Z,13.70
2019-05-22T08:05:00.831Z,13.20
2019-05-22T08:06:01.267Z,14.30
2019-05-22T08:08:01.543Z,11.20
2019-05-22T08:12:01.674Z,10.10
2019-05-22T08:13:01.498Z,8.90
2019-05-22T08:18:23.973Z,8.90
2019-05-22T08:19:23.887Z,8.70
2019-05-22T08:20:23.917Z,8.60
2019-05-22T08:21:24.103Z,9.30
2019-05-22T08:22:23.984Z,9.90
2019-05-22T08:23:24.020Z,8.30
2019-05-22T08:24:24.052Z,8.90
2019-05-22T08:25:24.085Z,9.00
2019-05-22T08:26:24.120Z,8.30
2019-05-22T08:27:24.152Z,8.90
2019-05-22T08:28:24.185Z,8.60
2019-05-22T08:29:24.274Z,8.80
2019-05-22T08:30:24.255Z,9.00
2019-05-22T08:31:24.678Z,8.90
2019-05-22T08:33:25.091Z,9.60
2019-05-22T08:34:24.418Z,9.20
2019-05-22T08:35:25.386Z,8.90
2019-05-22T08:36:24.680Z,8.50
2019-05-22T08:39:24.801Z,11.30
2019-05-22T08:44:25.163Z,6.80
2019-05-22T08:45:24.789Z,9.60
2019-05-22T08:46:25.128Z,7.30
2019-05-22T08:47:27.893Z,5.90
2019-05-22T08:48:24.865Z,6.10
2019-05-22T08:50:24.957Z,5.70
2019-05-22T08:51:25.193Z,6.50
2019-05-22T08:53:25.473Z,5.70
2019-05-22T08:55:25.540Z,4.90
2019-05-22T08:56:25.579Z,5.60
2019-05-22T08:57:25.175Z,5.10
2019-05-22T08:58:25.215Z,6.10
2019-05-22T08:59:25.268Z,4.50
2019-05-22T09:02:25.371Z,5.20
2019-05-22T09:03:25.406Z,4.60
2019-05-22T09:04:25.419Z,5.50
2019-05-22T09:05:25.475Z,4.60
2019-05-22T09:06:25.495Z,4.00
2019-05-22T09:07:25.526Z,4.20
2019-05-22T09:08:25.619Z,3.90
2019-05-22T09:09:25.594Z,4.50
2019-05-22T09:10:26.299Z,4.30
2019-05-22T09:11:25.660Z,5.30
2019-05-22T09:12:25.695Z,4.00
2019-05-22T09:13:25.729Z,3.70
2019-05-22T09:14:25.766Z,7.40
2019-05-22T09:15:25.800Z,4.50
2019-05-22T09:16:25.837Z,4.70
2019-05-22T09:17:25.873Z,4.90
2019-05-22T09:18:25.904Z,3.80
2019-05-22T09:19:25.943Z,3.90
2019-05-22T09:20:26.304Z,4.60
2019-05-22T09:22:39.569Z,5.50
2019-05-22T09:23:26.105Z,3.80
2019-05-22T09:26:26.223Z,4.00
2019-05-22T09:27:26.258Z,3.60
2019-05-22T09:28:26.265Z,3.90
2019-05-22T09:29:26.314Z,3.70
2019-05-22T09:30:26.759Z,3.00
2019-05-22T09:31:26.388Z,2.70
2019-05-22T09:32:26.626Z,2.10
2019-05-22T09:33:26.460Z,2.90
2019-05-22T09:35:26.517Z,3.10
2019-05-22T09:36:26.770Z,2.90
2019-05-22T09:37:26.610Z,2.90
2019-05-22T09:38:26.621Z,3.30
2019-05-22T09:39:26.677Z,6.70
2019-05-22T09:42:26.789Z,3.10
2019-05-22T09:43:28.240Z,3.20
2019-05-22T09:53:27.158Z,2.10
2019-05-22T09:54:27.196Z,2.40
2019-05-22T09:55:27.231Z,3.10
2019-05-22T09:56:27.275Z,2.80
2019-05-22T09:57:27.304Z,2.50
2019-05-22T09:58:27.342Z,2.30
2019-05-22T09:59:27.379Z,2.30
2019-05-22T10:00:27.414Z,5.70
2019-05-22T10:01:27.452Z,3.80
2019-05-22T10:02:27.488Z,2.60
2019-05-22T10:03:27.551Z,2.70
2019-05-22T10:04:27.560Z,3.10
2019-05-22T10:05:27.599Z,3.10
2019-05-22T10:06:27.634Z,3.30
2019-05-22T10:07:27.696Z,3.00
2019-05-22T10:08:27.735Z,3.20
2019-05-22T10:09:27.748Z,4.10
2019-05-22T10:10:27.786Z,3.10
2019-05-22T10:11:27.818Z,2.90
2019-05-22T10:12:27.855Z,4.00
2019-05-22T10:13:29.277Z,4.00
2019-05-22T10:14:27.956Z,3.80
2019-05-22T10:15:28.470Z,3.00
2019-05-22T10:16:28.030Z,3.10
2019-05-22T10:18:28.100Z,3.30
2019-05-22T10:19:28.119Z,2.90
2019-05-22T10:20:28.153Z,2.90
2019-05-22T10:21:28.190Z,3.70
2019-05-22T10:22:28.659Z,3.30
2019-05-22T10:23:28.266Z,3.10
2019-05-22T10:24:28.306Z,3.10
2019-05-22T10:25:28.342Z,3.00
2019-05-22T10:26:28.398Z,3.00
2019-05-22T10:27:28.421Z,3.10
2019-05-22T10:28:28.456Z,5.80
2019-05-22T10:29:31.961Z,3.10
2019-05-22T10:30:28.531Z,3.00
2019-05-22T10:31:28.570Z,4.70
2019-05-22T10:32:31.951Z,2.60
2019-05-22T10:33:28.649Z,3.00
2019-05-22T10:34:28.694Z,3.60
2019-05-22T10:35:28.723Z,3.20
2019-05-22T10:36:28.792Z,3.10
2019-05-22T10:37:28.798Z,3.40
2019-05-22T10:38:28.836Z,4.20
2019-05-22T10:39:28.874Z,3.90
2019-05-22T10:40:28.916Z,3.70
2019-05-22T10:41:28.955Z,3.20
2019-05-22T10:42:28.992Z,2.90
2019-05-22T10:43:31.663Z,2.80
2019-05-22T10:44:29.074Z,2.60
2019-05-22T10:45:29.112Z,2.70
2019-05-22T10:46:29.153Z,2.40
2019-05-22T10:47:29.252Z,5.40
2019-05-22T10:48:29.239Z,2.30
2019-05-22T10:49:29.283Z,2.40
2019-05-22T10:50:29.649Z,2.40
2019-05-22T10:51:29.360Z,2.20
2019-05-22T10:52:29.410Z,1.90
2019-05-22T10:53:33.631Z,4.30
2019-05-22T10:54:29.486Z,2.30
2019-05-22T10:55:29.529Z,2.60
2019-05-22T10:56:29.615Z,1.90
2019-05-22T10:57:29.617Z,2.40
2019-05-22T10:58:29.663Z,2.20
2019-05-22T10:59:29.724Z,2.80
2019-05-22T11:00:29.753Z,4.70
2019-05-22T11:01:29.794Z,1.80
2019-05-22T11:02:29.841Z,2.00
2019-05-22T11:03:29.899Z,3.50
2019-05-22T11:04:29.937Z,2.00
2019-05-22T11:05:29.978Z,1.60
2019-05-22T11:06:30.024Z,2.30
2019-05-22T11:07:30.071Z,1.70
2019-05-22T11:08:34.202Z,1.60
2019-05-22T11:09:30.160Z,1.70
2019-05-22T11:10:30.205Z,3.20
2019-05-22T11:11:30.250Z,1.80
2019-05-22T11:12:30.307Z,2.90
2019-05-22T11:13:34.019Z,2.40
2019-05-22T11:14:30.382Z,2.20
2019-05-22T11:15:30.455Z,1.70
2019-05-22T11:16:30.465Z,2.20
2019-05-22T11:17:30.509Z,1.60
2019-05-22T11:18:30.552Z,2.20
2019-05-22T11:19:30.595Z,5.30
2019-05-22T11:20:30.636Z,2.30
2019-05-22T11:21:30.678Z,2.90
2019-05-22T11:22:30.722Z,2.30
2019-05-22T11:23:30.767Z,2.10
2019-05-22T11:24:30.805Z,2.90
2019-05-22T11:25:30.850Z,2.00
2019-05-22T11:26:30.890Z,2.00
2019-05-22T11:27:30.960Z,2.60
2019-05-22T11:28:30.996Z,2.40
2019-05-22T11:29:31.026Z,2.10
2019-05-22T11:30:31.066Z,2.20
2019-05-22T11:31:31.115Z,3.10
2019-05-22T11:32:31.157Z,3.30
2019-05-22T11:33:34.233Z,6.50
2019-05-22T11:34:31.450Z,2.30
2019-05-22T11:35:31.298Z,3.90
2019-05-22T11:36:31.367Z,2.40
2019-05-22T11:37:31.396Z,5.90
2019-05-22T11:38:31.429Z,4.00
2019-05-22T11:39:39.529Z,4.30
2019-05-22T11:40:31.517Z,2.90
2019-05-22T11:41:31.564Z,1.90
2019-05-22T11:42:31.611Z,2.40
2019-05-22T11:43:31.652Z,3.80
2019-05-22T11:44:31.696Z,2.40
2019-05-22T11:45:31.746Z,2.20
2019-05-22T11:46:31.788Z,3.10
2019-05-22T11:47:31.834Z,2.20
2019-05-22T11:48:31.879Z,4.00
2019-05-22T11:49:31.931Z,2.20
2019-05-22T11:50:31.972Z,4.20
2019-05-22T11:51:32.014Z,2.00
2019-05-22T11:52:32.065Z,3.90
2019-05-22T11:53:32.106Z,2.30
2019-05-22T11:54:32.154Z,2.50
2019-05-22T11:55:44.022Z,1.90
2019-05-22T11:56:32.247Z,2.20
2019-05-22T11:57:32.295Z,1.70
2019-05-22T11:58:32.360Z,2.50
2019-05-22T11:59:32.392Z,2.20
2019-05-22T12:00:32.450Z,2.10
2019-05-22T12:02:32.762Z,2.00
2019-05-22T12:03:32.592Z,1.60
2019-05-22T12:04:47.297Z,2.00
2019-05-22T12:05:32.685Z,2.40
2019-05-22T12:06:32.961Z,2.00
2019-05-22T12:07:32.785Z,3.10
2019-05-22T12:08:32.834Z,2.50
2019-05-22T12:09:32.887Z,2.00
2019-05-22T12:10:32.956Z,2.90
2019-05-22T12:11:32.985Z,2.10
2019-05-22T12:12:35.245Z,3.00
2019-05-22T12:13:33.083Z,2.30
2019-05-22T12:14:33.133Z,2.00
2019-05-22T12:15:33.189Z,2.00
2019-05-22T12:16:33.233Z,3.50
2019-05-22T12:17:38.138Z,2.50
2019-05-22T12:19:33.382Z,2.00
2019-05-22T12:20:33.655Z,2.00
2019-05-22T12:21:33.484Z,1.70
2019-05-22T12:22:33.531Z,2.50
2019-05-22T12:23:33.582Z,3.10
2019-05-22T12:24:37.102Z,2.80
2019-05-22T12:25:33.679Z,2.30
2019-05-22T12:26:33.729Z,1.60
2019-05-22T12:27:33.793Z,2.10
2019-05-22T12:28:33.827Z,2.10
2019-05-22T12:29:33.896Z,2.00
2019-05-22T12:30:33.926Z,2.10
2019-05-22T12:31:33.974Z,2.30
2019-05-22T12:32:34.027Z,2.30
2019-05-22T12:33:34.073Z,3.40
2019-05-22T12:34:34.124Z,2.60
2019-05-22T12:35:34.176Z,2.10
2019-05-22T12:36:34.225Z,2.20
2019-05-22T12:37:34.363Z,2.40
2019-05-22T12:38:34.368Z,2.10
2019-05-22T12:39:34.375Z,2.30
2019-05-22T12:40:34.436Z,2.50
2019-05-22T12:41:34.462Z,2.40
2019-05-22T12:42:34.512Z,2.50
2019-05-22T12:43:34.559Z,2.20
2019-05-22T12:44:34.606Z,4.20
2019-05-22T12:45:34.659Z,2.90
2019-05-22T12:46:34.726Z,2.80
2019-05-22T12:47:34.956Z,2.50
2019-05-22T12:48:34.800Z,2.60
2019-05-22T12:50:17.834Z,2.70
2019-05-22T12:51:17.477Z,5.20
2019-05-22T12:52:17.504Z,6.80
2019-05-22T12:53:17.555Z,4.40
2019-05-22T12:54:17.596Z,1.90
2019-05-22T12:55:17.649Z,2.40
2019-05-22T12:56:17.696Z,2.60
2019-05-22T12:57:17.739Z,2.40
2019-05-22T12:58:17.789Z,2.80
2019-05-22T12:59:17.839Z,2.30
2019-05-22T13:00:17.886Z,2.40
2019-05-22T13:01:17.932Z,2.30
2019-05-22T13:02:17.980Z,2.80
2019-05-22T13:03:18.043Z,2.60
2019-05-22T13:04:18.089Z,5.30
2019-05-22T13:05:18.193Z,3.90
2019-05-22T13:06:18.177Z,2.70
2019-05-22T13:07:18.225Z,4.90
2019-05-22T13:08:18.283Z,2.80
2019-05-22T13:09:18.328Z,2.80
2019-05-22T13:10:18.368Z,8.90
2019-05-22T13:11:18.417Z,2.40
2019-05-22T13:12:18.465Z,3.60
2019-05-22T13:13:18.512Z,3.10
2019-05-22T13:14:18.560Z,3.40
2019-05-22T13:15:19.546Z,2.80
2019-05-22T13:16:18.680Z,3.00
2019-05-22T13:17:18.709Z,3.30
2019-05-22T13:18:18.749Z,3.20
2019-05-22T13:19:18.798Z,3.10
2019-05-22T13:20:18.845Z,3.10
2019-05-22T13:21:18.909Z,3.20
2019-05-22T13:23:18.981Z,4.20
2019-05-22T13:24:19.063Z,3.40
2019-05-22T13:25:19.100Z,3.70
2019-05-22T13:26:19.119Z,3.00
2019-05-22T13:28:19.233Z,2.90
2019-05-22T13:30:19.327Z,3.00
2019-05-22T13:31:19.352Z,2.40
2019-05-22T13:32:19.397Z,2.70
2019-05-22T13:33:19.440Z,3.00
2019-05-22T13:34:19.487Z,2.90
2019-05-22T13:35:19.533Z,2.50
2019-05-22T13:36:19.582Z,3.30
2019-05-22T13:38:20.685Z,2.30
2019-05-22T13:39:19.718Z,2.20
2019-05-22T13:40:27.630Z,2.00
2019-05-22T13:41:19.811Z,2.10
2019-05-22T13:42:19.857Z,1.80
2019-05-22T13:43:19.909Z,1.90
2019-05-22T13:44:19.953Z,2.20
2019-05-22T13:45:29.125Z,1.90
2019-05-22T13:46:20.071Z,2.10
2019-05-22T13:47:21.034Z,2.90
2019-05-22T13:48:20.151Z,3.20
2019-05-22T13:49:20.189Z,2.60
2019-05-22T13:51:20.286Z,2.20
2019-05-22T13:52:20.332Z,2.40
2019-05-22T13:53:20.380Z,2.20
2019-05-22T13:54:20.458Z,3.00
2019-05-22T13:55:20.477Z,3.20
2019-05-22T13:56:20.536Z,4.10
2019-05-22T13:57:20.571Z,4.50
2019-05-22T13:58:20.621Z,2.50
2019-05-22T13:59:20.670Z,2.10
2019-05-22T14:00:20.718Z,3.70
2019-05-22T14:01:20.765Z,3.40
2019-05-22T14:02:20.815Z,2.90
2019-05-22T14:03:20.866Z,3.00
2019-05-22T14:04:20.911Z,3.30
2019-05-22T14:05:20.960Z,4.10
2019-05-22T14:06:21.009Z,3.60
2019-05-22T14:07:21.058Z,2.90
2019-05-22T14:08:21.109Z,4.20
2019-05-22T14:09:21.760Z,2.90
2019-05-22T14:10:21.204Z,2.60
2019-05-22T14:11:21.252Z,2.60
2019-05-22T14:12:21.301Z,3.10
2019-05-22T14:13:21.350Z,3.00
2019-05-22T14:14:21.399Z,2.60
2019-05-22T14:15:21.447Z,2.40
2019-05-22T14:16:21.522Z,2.40
2019-05-22T14:17:21.546Z,2.30
2019-05-22T14:18:21.595Z,2.60
2019-05-22T14:19:21.641Z,2.20
2019-05-22T14:20:21.693Z,6.50
2019-05-22T14:21:21.742Z,2.10
2019-05-22T14:22:21.788Z,2.30
2019-05-22T14:23:21.854Z,4.30
2019-05-22T14:24:21.928Z,2.10
2019-05-22T14:25:21.936Z,1.80
2019-05-22T14:26:22.048Z,2.00
2019-05-22T14:27:22.035Z,1.60
2019-05-22T14:28:22.084Z,1.90
2019-05-22T14:29:22.131Z,4.50
2019-05-22T14:30:22.181Z,3.10
2019-05-22T14:31:22.231Z,4.10
2019-05-22T14:32:30.095Z,4.50
2019-05-22T14:33:22.331Z,1.60
2019-05-22T14:34:22.379Z,1.60
2019-05-22T14:35:22.428Z,1.40
2019-05-22T14:36:22.478Z,2.50
2019-05-22T14:37:22.529Z,1.50
2019-05-22T14:38:22.576Z,2.50
2019-05-22T14:39:22.627Z,4.90
2019-05-22T14:40:22.676Z,2.70
2019-05-22T14:41:22.725Z,2.50
2019-05-22T14:42:22.772Z,2.90
2019-05-22T14:43:22.821Z,2.80
2019-05-22T14:44:22.867Z,2.60
2019-05-22T14:45:22.937Z,2.90
2019-05-22T14:46:23.030Z,2.90
2019-05-22T14:47:23.041Z,4.70
2019-05-22T14:48:23.157Z,4.90
2019-05-22T14:49:23.528Z,2.20
2019-05-22T14:50:23.857Z,2.70
2019-05-22T14:51:23.932Z,5.50
2019-05-22T14:52:23.263Z,2.50
2019-05-22T14:53:23.288Z,2.50
2019-05-22T14:54:24.046Z,1.90
2019-05-22T14:55:23.384Z,3.20
2019-05-22T14:56:23.429Z,2.10
2019-05-22T14:57:23.477Z,2.50
2019-05-22T14:58:23.524Z,6.40
2019-05-22T14:59:23.572Z,2.70
2019-05-22T15:00:23.627Z,2.40
2019-05-22T15:01:23.670Z,2.40
2019-05-22T15:02:23.744Z,2.50
2019-05-22T15:03:23.763Z,2.60
2019-05-22T15:04:23.818Z,3.20
2019-05-22T15:05:23.860Z,3.00
2019-05-22T15:07:23.982Z,3.20
2019-05-22T15:08:24.003Z,2.70
2019-05-22T15:09:24.051Z,3.50
2019-05-22T15:10:24.099Z,3.10
2019-05-22T15:11:24.166Z,2.40
2019-05-22T15:12:24.192Z,4.50
2019-05-22T15:13:24.239Z,4.60
2019-05-22T15:14:24.289Z,3.10
2019-05-22T15:15:24.346Z,2.40
2019-05-22T15:16:24.382Z,3.30
2019-05-22T15:17:32.529Z,3.20
2019-05-22T15:18:24.477Z,3.00
2019-05-22T15:19:24.525Z,3.20
2019-05-22T15:20:24.574Z,2.70
2019-05-22T15:21:24.625Z,3.30
2019-05-22T15:22:24.669Z,2.80
2019-05-22T15:23:24.717Z,2.80
2019-05-22T15:24:24.868Z,2.90
2019-05-22T15:25:24.813Z,3.90
2019-05-22T15:26:24.862Z,2.80
2019-05-22T15:27:24.913Z,3.70
2019-05-22T15:28:26.770Z,2.30
2019-05-22T15:29:25.009Z,2.40
2019-05-22T15:30:25.054Z,3.30
2019-05-22T15:31:25.096Z,3.00
2019-05-22T15:32:25.145Z,2.70
2019-05-22T15:33:25.256Z,4.40
2019-05-22T15:34:25.244Z,2.50
2019-05-22T15:35:25.287Z,3.60
2019-05-22T15:36:25.564Z,4.30
2019-05-22T15:38:25.455Z,4.10
2019-05-22T15:39:25.907Z,3.20
2019-05-22T15:40:25.549Z,3.00
2019-05-22T15:41:25.594Z,2.80
2019-05-22T15:42:26.157Z,2.90
2019-05-22T15:43:26.634Z,2.30
2019-05-22T15:49:25.954Z,3.10
2019-05-22T15:50:27.035Z,2.50
2019-05-22T15:51:26.053Z,3.30
2019-05-22T15:52:26.108Z,2.90
2019-05-22T15:53:26.142Z,3.30
2019-05-22T15:54:26.191Z,2.90
2019-05-22T15:55:26.236Z,3.00
2019-05-22T15:56:26.283Z,4.20
2019-05-22T15:57:26.327Z,5.10
2019-05-22T15:58:26.373Z,3.30
2019-05-22T15:59:26.418Z,2.70
2019-05-22T16:00:28.066Z,3.20
2019-05-22T16:01:26.506Z,3.00
2019-05-22T16:02:26.554Z,3.20
2019-05-22T16:03:26.600Z,3.10
2019-05-22T16:04:26.642Z,2.30
2019-05-22T16:05:26.707Z,2.80
2019-05-22T16:06:26.732Z,3.20